Airfield :
LOGIN :

Register | Disclaimer

   EN    FR    IT 

 










Legend :    VFR   Marginal VFR   IFR   Intensive IFR   Very Intensive IFR
Visi :
Ceiling :
>= 8 km
>= 3000ft
5 to 8 km
1000 to 3000 ft
1500m to 5 km
500 to 1000 ft
800 to 1500m
200 to 500 ft
< 800m
< 200 ft
Symbols :   Thunderstorms  Fog  Heavy snow  Heavy precipitations  Wind > 20 kt
SIGMETs :     Misc.  Thunderstorms  Icing  Turbulence  Mountain Waves  Volcanic Ashes







- Airport Elevation : 17 ft
- IATA code : KLR


ESMQ - Kalmar

CURRENT METAR :
  • 170350Z AUTO 24009KT 9999 FEW022/// SCT059/// BKN085/// 04/03 Q0984

EXPIRED METARs :
  • 170320Z AUTO 24009KT 8000 BR FEW008/// SCT018/// BKN033/// 05/04 Q0985
  • 170250Z AUTO 23012KT 9999 DZ FEW009/// OVC010/// 05/04 Q0985 REDZ
  • 170220Z AUTO 23015KT 9999 -DZ SCT010/// BKN014/// OVC018/// 05/04 Q0985
  • 170150Z AUTO 23016KT 9999 -DZ BKN011/// OVC017/// 06/04 Q0985
  • 170120Z AUTO 23014KT 9999 FEW011/// BKN013/// OVC017/// 06/04 Q0985

Expired Forecast.
No reported NOTAMs for that airfield.



MET'MAP, your aeronautical weather chart ! - Copyright ORBIFLY December 2007 - Disclaimer

ORBIFLY MET'MAP TEAM :

Programming & Development : Alexandra Zaïnal
Concept & Development : Baudouin d'Aumeries
Co-Development & Prog : Marc-Olivier Méhu
Technical & hardware support : Manuel Goepfert

Contact : metmap@orbifly.com




SOURCES & CREDITS :

   NOAA